createdAt,value
2022-10-11T00:02:10.939Z,4.00
2022-10-11T00:04:38.926Z,4.13
2022-10-11T00:07:06.901Z,4.07
2022-10-11T00:09:36.452Z,4.03
2022-10-11T00:12:04.600Z,3.28
2022-10-11T00:14:33.981Z,3.55
2022-10-11T00:17:02.148Z,3.80
2022-10-11T00:19:30.149Z,3.30
2022-10-11T00:21:58.615Z,3.65
2022-10-11T00:24:28.371Z,3.70
2022-10-11T00:26:57.853Z,3.35
2022-10-11T00:29:25.868Z,3.80
2022-10-11T00:31:53.865Z,3.42
2022-10-11T00:34:21.832Z,3.08
2022-10-11T00:36:50.208Z,3.20
2022-10-11T00:39:17.928Z,3.15
2022-10-11T00:41:47.802Z,3.72
2022-10-11T00:44:18.989Z,3.15
2022-10-11T00:46:55.691Z,3.08
2022-10-11T00:49:27.365Z,3.55
2022-10-11T00:51:59.184Z,3.20
2022-10-11T00:54:28.579Z,3.17
2022-10-11T00:56:59.287Z,3.45
2022-10-11T00:59:31.072Z,2.83
2022-10-11T01:02:00.510Z,3.03
2022-10-11T01:04:28.585Z,3.50
2022-10-11T01:06:57.018Z,2.92
2022-10-11T01:09:25.252Z,3.83
2022-10-11T01:11:54.296Z,3.20
2022-10-11T01:14:35.980Z,3.25
2022-10-11T01:17:10.161Z,3.83
2022-10-11T01:19:50.922Z,3.45
2022-10-11T01:22:23.761Z,3.25
2022-10-11T01:25:01.828Z,3.60
2022-10-11T01:27:36.611Z,3.05
2022-10-11T01:30:19.307Z,3.25
2022-10-11T01:32:51.654Z,3.47
2022-10-11T01:35:24.551Z,3.38
2022-10-11T01:37:56.855Z,3.47
2022-10-11T01:40:26.126Z,3.35
2022-10-11T01:42:55.225Z,3.15
2022-10-11T01:45:23.199Z,3.15
2022-10-11T01:48:06.233Z,2.70
2022-10-11T01:50:41.144Z,3.38
2022-10-11T01:53:21.580Z,3.10
2022-10-11T01:55:51.559Z,3.83
2022-10-11T01:58:25.174Z,3.45
2022-10-11T02:00:57.197Z,3.95
2022-10-11T02:03:29.360Z,3.15
2022-10-11T02:06:01.242Z,3.58
2022-10-11T02:08:34.761Z,2.88
2022-10-11T02:11:05.876Z,3.28
2022-10-11T02:13:34.679Z,3.63
2022-10-11T02:16:05.244Z,3.35
2022-10-11T02:18:36.237Z,3.28
2022-10-11T02:21:08.871Z,3.00
2022-10-11T02:23:39.341Z,3.10
2022-10-11T02:26:08.157Z,2.88
2022-10-11T02:28:37.852Z,2.65
2022-10-11T02:31:07.512Z,3.33
2022-10-11T02:33:38.779Z,3.30
2022-10-11T02:36:12.309Z,2.75
2022-10-11T02:38:41.459Z,2.60
2022-10-11T02:41:12.309Z,2.90
2022-10-11T02:43:42.810Z,3.50
2022-10-11T02:46:11.377Z,3.30
2022-10-11T02:48:39.839Z,3.92
2022-10-11T02:51:12.507Z,3.42
2022-10-11T02:53:40.198Z,3.03
2022-10-11T02:56:08.980Z,3.70
2022-10-11T02:58:38.840Z,3.50
2022-10-11T03:01:06.982Z,3.45
2022-10-11T03:03:34.916Z,3.50
2022-10-11T03:06:03.757Z,3.65
2022-10-11T03:08:33.099Z,3.50
2022-10-11T03:11:00.996Z,3.10
2022-10-11T03:13:29.244Z,2.90
2022-10-11T03:16:03.161Z,3.47
2022-10-11T03:18:35.294Z,3.58
2022-10-11T03:21:03.768Z,3.72
2022-10-11T03:23:33.777Z,3.75
2022-10-11T03:26:03.458Z,3.42
2022-10-11T03:28:31.753Z,3.45
2022-10-11T03:30:59.665Z,3.22
2022-10-11T03:33:27.844Z,2.72
2022-10-11T03:35:55.737Z,3.30
2022-10-11T03:38:24.042Z,3.72
2022-10-11T03:40:53.408Z,3.00
2022-10-11T03:43:21.560Z,3.03
2022-10-11T03:45:54.135Z,2.90
2022-10-11T03:48:22.164Z,3.40
2022-10-11T03:50:50.061Z,3.30
2022-10-11T03:53:18.036Z,3.25
2022-10-11T03:55:46.313Z,3.30
2022-10-11T03:58:16.277Z,2.83
2022-10-11T04:00:44.027Z,3.28
2022-10-11T04:03:12.279Z,2.95
2022-10-11T04:05:40.077Z,3.20
2022-10-11T04:08:11.918Z,3.20
2022-10-11T04:10:40.469Z,3.28
2022-10-11T04:13:08.585Z,3.58
2022-10-11T04:15:38.291Z,4.63
2022-10-11T04:18:08.144Z,4.25
2022-10-11T04:20:36.690Z,3.97
2022-10-11T04:23:04.463Z,3.50
2022-10-11T04:25:32.161Z,3.72
2022-10-11T04:27:59.877Z,3.70
2022-10-11T04:30:28.445Z,3.78
2022-10-11T04:32:59.047Z,3.33
2022-10-11T04:35:26.782Z,3.38
2022-10-11T04:37:54.454Z,3.33
2022-10-11T04:40:23.192Z,3.38
2022-10-11T04:42:53.920Z,3.40
2022-10-11T04:45:22.168Z,3.20
2022-10-11T04:47:49.776Z,3.42
2022-10-11T04:50:21.145Z,3.28
2022-10-11T04:52:48.817Z,3.53
2022-10-11T04:55:18.531Z,3.20
2022-10-11T04:57:46.468Z,3.58
2022-10-11T05:00:15.000Z,3.42
2022-10-11T05:02:42.960Z,3.80
2022-10-11T05:05:17.601Z,3.33
2022-10-11T05:07:48.010Z,3.90
2022-10-11T05:10:15.775Z,3.58
2022-10-11T05:12:43.616Z,3.40
2022-10-11T05:15:12.035Z,3.50
2022-10-11T05:17:40.200Z,3.60
2022-10-11T05:20:08.678Z,3.55
2022-10-11T05:22:36.697Z,3.88
2022-10-11T05:25:07.004Z,4.25
2022-10-11T05:27:34.743Z,3.72
2022-10-11T05:30:02.740Z,3.47
2022-10-11T05:32:31.413Z,3.72
2022-10-11T05:34:59.644Z,4.40
2022-10-11T05:37:27.349Z,3.67
2022-10-11T05:39:55.292Z,3.92
2022-10-11T05:42:24.855Z,4.55
2022-10-11T05:44:52.707Z,4.20
2022-10-11T05:47:20.580Z,3.88
2022-10-11T05:49:48.765Z,3.55
2022-10-11T05:52:21.608Z,4.38
2022-10-11T05:54:49.893Z,4.05
2022-10-11T05:57:17.801Z,3.85
2022-10-11T05:59:47.248Z,4.57
2022-10-11T06:02:15.480Z,4.60
2022-10-11T06:04:43.796Z,4.25
2022-10-11T06:07:11.720Z,3.78
2022-10-11T06:09:39.833Z,4.30
2022-10-11T06:12:08.065Z,3.88
2022-10-11T06:14:37.027Z,4.30
2022-10-11T06:17:06.632Z,4.60
2022-10-11T06:19:35.329Z,4.90
2022-10-11T06:22:03.265Z,4.22
2022-10-11T06:24:31.154Z,4.35
2022-10-11T06:26:58.898Z,4.65
2022-10-11T06:29:27.086Z,4.57
2022-10-11T06:31:55.058Z,4.43
2022-10-11T06:34:24.747Z,4.47
2022-10-11T06:36:52.947Z,5.32
2022-10-11T06:39:20.969Z,4.65
2022-10-11T06:41:48.848Z,5.10
2022-10-11T06:44:18.487Z,4.65
2022-10-11T06:46:46.593Z,4.22
2022-10-11T06:49:17.173Z,4.68
2022-10-11T06:51:48.696Z,4.47
2022-10-11T06:54:16.660Z,4.40
2022-10-11T06:56:45.793Z,4.72
2022-10-11T06:59:13.629Z,4.78
2022-10-11T07:01:41.687Z,3.83
2022-10-11T07:04:09.798Z,3.20
2022-10-11T07:06:39.072Z,3.55
2022-10-11T07:09:09.649Z,2.92
2022-10-11T07:11:38.902Z,2.90
2022-10-11T07:14:08.847Z,3.28
2022-10-11T07:16:37.219Z,3.70
2022-10-11T07:19:06.103Z,2.92
2022-10-11T07:21:34.566Z,3.42
2022-10-11T07:24:03.749Z,2.75
2022-10-11T07:26:38.853Z,2.65
2022-10-11T07:29:07.134Z,2.95
2022-10-11T07:31:37.105Z,2.85
2022-10-11T07:34:04.954Z,3.17
2022-10-11T07:36:32.726Z,3.55
2022-10-11T07:39:00.976Z,3.03
2022-10-11T07:41:29.668Z,3.15
2022-10-11T07:43:59.213Z,3.20
2022-10-11T07:46:27.689Z,4.38
2022-10-11T07:48:55.665Z,3.13
2022-10-11T07:51:24.688Z,3.35
2022-10-11T07:53:53.578Z,3.83
2022-10-11T07:56:24.211Z,4.28
2022-10-11T07:58:53.708Z,5.13
2022-10-11T08:01:25.733Z,4.93
2022-10-11T08:03:54.241Z,4.30
2022-10-11T08:06:26.216Z,4.45
2022-10-11T08:08:54.521Z,4.25
2022-10-11T08:11:24.114Z,4.65
2022-10-11T08:13:54.313Z,4.70
2022-10-11T08:16:23.056Z,4.93
2022-10-11T08:18:57.071Z,5.63
2022-10-11T08:21:26.773Z,4.63
2022-10-11T08:23:54.596Z,5.22
2022-10-11T08:26:22.496Z,5.03
2022-10-11T08:28:50.434Z,5.35
2022-10-11T08:31:18.590Z,5.80
2022-10-11T08:33:46.680Z,6.05
2022-10-11T08:36:16.155Z,4.85
2022-10-11T08:38:44.406Z,4.38
2022-10-11T08:41:23.347Z,4.47
2022-10-11T08:43:55.396Z,4.43
2022-10-11T08:46:26.870Z,4.20
2022-10-11T08:48:55.790Z,3.60
2022-10-11T08:51:29.332Z,3.65
2022-10-11T08:54:01.390Z,3.25
2022-10-11T08:56:33.724Z,2.47
2022-10-11T08:59:03.330Z,2.40
2022-10-11T09:01:33.229Z,2.58
2022-10-11T09:04:03.637Z,2.25
2022-10-11T09:06:38.309Z,1.83
2022-10-11T09:09:22.406Z,0.68
2022-10-11T09:11:57.724Z,1.52
2022-10-11T09:14:38.213Z,1.48
2022-10-11T09:17:10.412Z,1.52
2022-10-11T09:20:05.812Z,2.85
2022-10-11T09:22:44.287Z,2.25
2022-10-11T09:25:18.524Z,2.00
2022-10-11T09:28:02.197Z,1.80
2022-10-11T09:30:32.095Z,1.90
2022-10-11T09:33:05.207Z,1.60
2022-10-11T09:35:37.166Z,2.05
2022-10-11T09:38:09.261Z,1.40
2022-10-11T09:40:41.526Z,1.38
2022-10-11T09:43:09.613Z,1.40
2022-10-11T09:45:49.193Z,1.42
2022-10-11T09:48:21.393Z,1.50
2022-10-11T09:50:51.218Z,1.70
2022-10-11T09:53:22.301Z,1.50
2022-10-11T09:55:54.017Z,1.67
2022-10-11T09:58:30.777Z,1.38
2022-10-11T10:01:06.581Z,1.77
2022-10-11T10:03:38.163Z,1.38
2022-10-11T10:06:09.880Z,1.20
2022-10-11T10:08:45.593Z,0.93
2022-10-11T10:11:13.783Z,1.30
2022-10-11T10:13:50.713Z,0.43
2022-10-11T10:16:23.373Z,0.43
2022-10-11T10:18:52.770Z,0.30
2022-10-11T10:21:26.806Z,0.75
2022-10-11T10:23:56.722Z,1.10
2022-10-11T10:26:25.668Z,0.90
2022-10-11T10:29:02.758Z,0.65
2022-10-11T10:31:55.409Z,1.13
2022-10-11T10:34:28.649Z,1.15
2022-10-11T10:36:58.246Z,1.15
2022-10-11T10:39:30.609Z,0.98
2022-10-11T10:41:58.926Z,0.95
2022-10-11T10:44:27.097Z,1.15
2022-10-11T10:47:03.797Z,0.73
2022-10-11T10:49:53.178Z,0.80
2022-10-11T10:52:50.326Z,1.40
2022-10-11T10:55:28.222Z,0.90
2022-10-11T10:58:19.053Z,1.33
2022-10-11T11:01:07.043Z,1.00
2022-10-11T11:03:38.040Z,0.60
2022-10-11T11:06:08.311Z,1.60
2022-10-11T11:08:54.435Z,1.08
2022-10-11T11:11:40.967Z,1.48
2022-10-11T11:14:13.664Z,1.20
2022-10-11T11:16:46.481Z,1.40
2022-10-11T11:19:22.388Z,1.58
2022-10-11T11:21:56.003Z,1.60
2022-10-11T11:24:32.352Z,1.10
2022-10-11T11:27:06.501Z,1.42
2022-10-11T11:29:45.260Z,1.40
2022-10-11T11:32:18.116Z,1.60
2022-10-11T11:34:48.049Z,0.88
2022-10-11T11:37:22.225Z,1.35
2022-10-11T11:39:51.813Z,1.55
2022-10-11T11:42:26.803Z,1.20
2022-10-11T11:44:56.969Z,1.23
2022-10-11T11:47:26.737Z,1.13
2022-10-11T11:49:58.597Z,1.50
2022-10-11T11:52:28.208Z,0.93
2022-10-11T11:55:03.645Z,0.70
2022-10-11T11:57:37.406Z,1.67
2022-10-11T12:00:17.511Z,1.70
2022-10-11T12:02:47.631Z,1.50
2022-10-11T12:05:17.577Z,1.00
2022-10-11T12:07:50.488Z,0.32
2022-10-11T12:10:24.237Z,0.50
2022-10-11T12:13:03.137Z,0.98
2022-10-11T12:15:31.674Z,1.52
2022-10-11T12:18:04.591Z,1.10
2022-10-11T12:20:33.296Z,1.30
2022-10-11T12:23:03.086Z,1.38
2022-10-11T12:25:36.518Z,1.08
2022-10-11T12:28:26.128Z,1.05
2022-10-11T12:30:54.765Z,1.08
2022-10-11T12:33:24.141Z,1.20
2022-10-11T12:36:04.044Z,1.42
2022-10-11T12:38:37.438Z,1.27
2022-10-11T12:41:20.645Z,1.48
2022-10-11T12:44:09.975Z,1.65
2022-10-11T12:46:43.662Z,1.20
2022-10-11T12:49:26.951Z,1.13
2022-10-11T12:51:59.569Z,1.40
2022-10-11T12:54:47.449Z,1.20
2022-10-11T12:57:27.091Z,0.95
2022-10-11T12:59:55.080Z,1.02
2022-10-11T13:02:29.022Z,0.80
2022-10-11T13:05:07.438Z,1.20
2022-10-11T13:07:36.337Z,1.40
2022-10-11T13:10:05.705Z,1.20
2022-10-11T13:12:37.156Z,1.15
2022-10-11T13:15:08.421Z,1.10
2022-10-11T13:17:38.993Z,1.75
2022-10-11T13:20:11.206Z,1.42
2022-10-11T13:22:42.697Z,1.05
2022-10-11T13:25:10.912Z,1.05
2022-10-11T13:27:39.573Z,1.15
2022-10-11T13:30:13.702Z,1.38
2022-10-11T13:32:43.906Z,1.70
2022-10-11T13:35:18.744Z,1.10
2022-10-11T13:37:49.608Z,0.82
2022-10-11T13:40:19.416Z,1.63
2022-10-11T13:42:48.610Z,1.27
2022-10-11T13:45:18.505Z,1.35
2022-10-11T13:47:48.605Z,1.38
2022-10-11T13:50:30.448Z,1.83
2022-10-11T13:52:59.616Z,1.30
2022-10-11T13:55:29.315Z,1.40
2022-10-11T13:57:58.961Z,0.90
2022-10-11T14:00:29.685Z,1.20
2022-10-11T14:03:01.035Z,1.10
2022-10-11T14:05:31.190Z,1.10
2022-10-11T14:07:59.827Z,1.83
2022-10-11T14:10:28.214Z,1.33
2022-10-11T14:13:00.516Z,1.77
2022-10-11T14:15:30.885Z,1.42
2022-10-11T14:18:01.083Z,1.23
2022-10-11T14:20:35.732Z,1.55
2022-10-11T14:23:03.640Z,1.60
2022-10-11T14:25:31.576Z,1.70
2022-10-11T14:28:00.179Z,1.27
2022-10-11T14:30:31.362Z,1.58
2022-10-11T14:33:02.613Z,0.95
2022-10-11T14:35:34.726Z,1.50
2022-10-11T14:38:02.537Z,1.20
2022-10-11T14:40:31.536Z,1.50
2022-10-11T14:42:59.628Z,1.80
2022-10-11T14:45:27.981Z,1.13
2022-10-11T14:47:56.921Z,1.30
2022-10-11T14:50:36.626Z,1.15
2022-10-11T14:53:05.841Z,1.30
2022-10-11T14:55:33.857Z,1.45
2022-10-11T14:58:01.669Z,1.33
2022-10-11T15:00:31.308Z,2.40
2022-10-11T15:02:59.352Z,1.70
2022-10-11T15:05:33.657Z,1.60
2022-10-11T15:08:05.309Z,1.38
2022-10-11T15:10:36.640Z,1.40
2022-10-11T15:13:05.156Z,1.52
2022-10-11T15:15:35.803Z,1.27
2022-10-11T15:18:04.280Z,1.20
2022-10-11T15:20:34.159Z,1.20
2022-10-11T15:23:02.855Z,1.52
2022-10-11T15:25:32.511Z,1.60
2022-10-11T15:28:00.215Z,1.90
2022-10-11T15:30:30.211Z,1.88
2022-10-11T15:32:58.620Z,1.55
2022-10-11T15:35:27.244Z,1.10
2022-10-11T15:37:57.476Z,1.52
2022-10-11T15:40:27.976Z,1.70
2022-10-11T15:42:57.625Z,1.80
2022-10-11T15:45:27.215Z,1.85
2022-10-11T15:47:55.652Z,1.25
2022-10-11T15:50:34.160Z,1.63
2022-10-11T15:53:03.253Z,1.60
2022-10-11T15:55:31.877Z,1.63
2022-10-11T15:58:01.562Z,1.30
2022-10-11T16:00:30.952Z,1.90
2022-10-11T16:03:02.805Z,1.60
2022-10-11T16:05:33.962Z,1.48
2022-10-11T16:08:02.176Z,1.50
2022-10-11T16:10:30.376Z,1.70
2022-10-11T16:12:59.785Z,1.55
2022-10-11T16:15:29.829Z,2.00
2022-10-11T16:17:58.159Z,1.73
2022-10-11T16:20:26.100Z,1.40
2022-10-11T16:22:55.680Z,1.40
2022-10-11T16:25:24.199Z,1.52
2022-10-11T16:27:52.593Z,2.10
2022-10-11T16:30:21.440Z,1.33
2022-10-11T16:32:50.982Z,1.92
2022-10-11T16:35:20.141Z,1.60
2022-10-11T16:37:48.092Z,1.80
2022-10-11T16:40:17.700Z,1.85
2022-10-11T16:42:48.419Z,2.90
2022-10-11T16:45:17.039Z,1.80
2022-10-11T16:47:45.804Z,1.92
2022-10-11T16:50:15.182Z,2.05
2022-10-11T16:52:43.256Z,1.65
2022-10-11T16:55:11.822Z,2.17
2022-10-11T16:57:41.422Z,2.47
2022-10-11T17:00:12.770Z,0.40
2022-10-11T17:02:40.939Z,0.90
2022-10-11T17:05:09.443Z,1.40
2022-10-11T17:07:40.715Z,1.70
2022-10-11T17:10:09.699Z,1.33
2022-10-11T17:12:38.973Z,1.15
2022-10-11T17:15:07.691Z,2.08
2022-10-11T17:17:36.283Z,1.88
2022-10-11T17:20:04.754Z,1.05
2022-10-11T17:22:35.946Z,0.43
2022-10-11T17:25:05.680Z,0.47
2022-10-11T17:27:33.606Z,1.80
2022-10-11T17:30:01.658Z,2.15
2022-10-11T17:32:56.773Z,1.60
2022-10-11T17:35:24.507Z,1.02
2022-10-11T17:37:52.559Z,1.02
2022-10-11T17:40:21.729Z,1.55
2022-10-11T17:42:49.873Z,0.77
2022-10-11T17:45:20.190Z,0.52
2022-10-11T17:47:51.815Z,0.60
2022-10-11T17:50:20.421Z,0.60
2022-10-11T17:52:49.017Z,0.57
2022-10-11T17:55:19.482Z,0.82
2022-10-11T17:57:48.977Z,1.00
2022-10-11T18:00:17.397Z,0.68
2022-10-11T18:02:49.045Z,0.85
2022-10-11T18:05:18.074Z,0.95
2022-10-11T18:07:45.710Z,0.88
2022-10-11T18:10:15.885Z,0.77
2022-10-11T18:12:44.237Z,1.13
2022-10-11T18:15:14.368Z,1.10
2022-10-11T18:17:42.144Z,0.93
2022-10-11T18:20:10.985Z,0.90
2022-10-11T18:22:40.097Z,1.08
2022-10-11T18:25:09.873Z,1.00
2022-10-11T18:27:39.055Z,0.90
2022-10-11T18:30:07.759Z,1.40
2022-10-11T18:32:37.420Z,1.15
2022-10-11T18:35:05.707Z,1.30
2022-10-11T18:37:34.920Z,1.02
2022-10-11T18:40:04.570Z,1.13
2022-10-11T18:42:32.490Z,1.60
2022-10-11T18:45:01.519Z,1.20
2022-10-11T18:47:29.506Z,1.50
2022-10-11T18:49:59.817Z,1.60
2022-10-11T18:52:28.617Z,1.85
2022-10-11T18:54:59.075Z,1.60
2022-10-11T18:57:27.025Z,1.63
2022-10-11T18:59:55.005Z,1.65
2022-10-11T19:02:24.221Z,4.13
2022-10-11T19:04:53.061Z,4.18
2022-10-11T19:07:23.234Z,4.00
2022-10-11T19:09:51.123Z,4.07
2022-10-11T19:12:19.709Z,5.00
2022-10-11T19:14:50.705Z,3.63
2022-10-11T19:17:22.955Z,4.18
2022-10-11T19:19:51.777Z,3.50
2022-10-11T19:22:20.509Z,4.40
2022-10-11T19:24:49.881Z,4.38
2022-10-11T19:27:18.495Z,4.03
2022-10-11T19:29:46.636Z,4.30
2022-10-11T19:32:14.761Z,4.47
2022-10-11T19:34:43.360Z,4.15
2022-10-11T19:37:13.480Z,4.57
2022-10-11T19:39:41.893Z,5.32
2022-10-11T19:42:11.273Z,4.53
2022-10-11T19:44:39.957Z,4.88
2022-10-11T19:47:07.939Z,4.32
2022-10-11T19:49:36.818Z,4.07
2022-10-11T19:52:09.570Z,4.30
2022-10-11T19:54:37.786Z,3.60
2022-10-11T19:57:05.658Z,4.15
2022-10-11T19:59:35.202Z,3.90
2022-10-11T20:02:02.988Z,3.60
2022-10-11T20:04:52.520Z,4.32
2022-10-11T20:07:20.127Z,3.15
2022-10-11T20:09:47.910Z,3.40
2022-10-11T20:12:15.917Z,3.88
2022-10-11T20:14:45.783Z,3.42
2022-10-11T20:17:15.360Z,3.83
2022-10-11T20:19:43.056Z,4.15
2022-10-11T20:22:11.173Z,4.13
2022-10-11T20:24:39.406Z,3.47
2022-10-11T20:27:07.852Z,4.10
2022-10-11T20:29:35.920Z,3.10
2022-10-11T20:32:05.515Z,3.03
2022-10-11T20:34:33.347Z,4.25
2022-10-11T20:37:01.844Z,3.78
2022-10-11T20:39:29.978Z,3.95
2022-10-11T20:41:57.740Z,4.30
2022-10-11T20:44:25.641Z,4.10
2022-10-11T20:46:53.378Z,6.40
2022-10-11T20:49:25.303Z,4.95
2022-10-11T20:51:53.444Z,5.28
2022-10-11T20:54:21.309Z,4.57
2022-10-11T20:56:49.262Z,4.43
2022-10-11T20:59:18.733Z,4.80
2022-10-11T21:01:46.583Z,3.80
2022-10-11T21:04:20.858Z,4.28
2022-10-11T21:06:50.537Z,4.28
2022-10-11T21:09:19.450Z,4.07
2022-10-11T21:11:47.338Z,3.58
2022-10-11T21:14:15.253Z,4.70
2022-10-11T21:16:43.484Z,3.97
2022-10-11T21:19:13.586Z,3.80
2022-10-11T21:21:41.669Z,3.45
2022-10-11T21:24:11.172Z,3.55
2022-10-11T21:26:39.136Z,4.35
2022-10-11T21:29:08.326Z,3.50
2022-10-11T21:31:36.438Z,3.55
2022-10-11T21:34:05.107Z,3.55
2022-10-11T21:36:32.917Z,4.00
2022-10-11T21:39:02.685Z,3.78
2022-10-11T21:41:33.979Z,3.28
2022-10-11T21:44:01.916Z,4.25
2022-10-11T21:47:05.004Z,3.38
2022-10-11T21:49:19.233Z,3.85
2022-10-11T21:51:47.099Z,3.70
2022-10-11T21:54:15.138Z,3.63
2022-10-11T21:56:45.202Z,3.42
2022-10-11T21:59:13.373Z,3.60
2022-10-11T22:01:42.092Z,3.28
2022-10-11T22:04:11.042Z,3.55
2022-10-11T22:06:39.274Z,3.50
2022-10-11T22:09:08.769Z,3.47
2022-10-11T22:11:37.138Z,3.70
2022-10-11T22:14:06.712Z,4.22
2022-10-11T22:16:35.208Z,4.28
2022-10-11T22:19:03.154Z,4.28
2022-10-11T22:21:31.414Z,4.15
2022-10-11T22:23:59.388Z,3.47
2022-10-11T22:26:30.031Z,3.75
2022-10-11T22:28:58.132Z,3.22
2022-10-11T22:31:27.944Z,3.80
2022-10-11T22:33:55.901Z,3.67
2022-10-11T22:36:25.132Z,3.70
2022-10-11T22:38:53.837Z,3.88
2022-10-11T22:41:22.146Z,3.60
2022-10-11T22:43:50.179Z,3.75
2022-10-11T22:46:18.003Z,4.53
2022-10-11T22:48:49.413Z,4.32
2022-10-11T22:51:17.857Z,4.13
2022-10-11T22:53:46.500Z,3.92
2022-10-11T22:56:14.651Z,3.72
2022-10-11T22:58:43.633Z,3.65
2022-10-11T23:01:12.489Z,4.47
2022-10-11T23:03:40.685Z,4.53
2022-10-11T23:06:10.853Z,4.20
2022-10-11T23:08:38.672Z,4.55
2022-10-11T23:11:06.734Z,4.30
2022-10-11T23:13:34.941Z,4.22
2022-10-11T23:18:39.247Z,4.80
2022-10-11T23:21:07.535Z,5.55
2022-10-11T23:23:37.235Z,4.18
2022-10-11T23:26:06.269Z,4.22
2022-10-11T23:28:35.048Z,4.10
2022-10-11T23:31:07.283Z,4.60
2022-10-11T23:33:35.733Z,4.07
2022-10-11T23:36:03.747Z,4.30
2022-10-11T23:38:31.637Z,4.93
2022-10-11T23:41:01.374Z,5.15
2022-10-11T23:43:29.652Z,4.78
2022-10-11T23:45:58.143Z,4.35
2022-10-11T23:48:26.341Z,3.97
2022-10-11T23:50:54.429Z,3.95
2022-10-11T23:53:22.486Z,4.63
2022-10-11T23:55:50.771Z,4.72
2022-10-11T23:58:21.644Z,4.70
